This is the latest recevied weather packets stored in our database for station/object UR7D-12. If no packets are shown the sender has not sent any weather packets the latest 10 day(s).
| Time | Temp. | Humidity | Pressure | Rain* | Wind** | Luminosity | Snow |
|---|---|---|---|---|---|---|---|
| 1777584240 | 6.11° C | 46% | 999.9 hPa | 0 mm | - | - | - |
| 1777583640 | 5.56° C | 49% | 999.8 hPa | 0 mm | - | - | - |
| 1777583341 | 6.11° C | 47% | 999.7 hPa | 0 mm | - | - | - |
| 1777583039 | 6.11° C | 47% | 999.6 hPa | 0 mm | - | - | - |
| 1777582438 | 6.67° C | 44% | 999.5 hPa | 0 mm | - | - | - |
| 1777581538 | 6.67° C | 44% | 999.6 hPa | 0 mm | - | - | - |
| 1777581238 | 6.11° C | 46% | 999.6 hPa | 0 mm | - | - | - |
| 1777580637 | 6.67° C | 46% | 999.6 hPa | 0 mm | - | - | - |
| 1777580336 | 7.22° C | 44% | 999.6 hPa | 0 mm | - | - | - |
| 1777580036 | 6.67° C | 44% | 999.6 hPa | 0 mm | - | - | - |
| 1777579735 | 6.67° C | 44% | 999.5 hPa | 0 mm | - | - | - |
| 1777579437 | 6.67° C | 45% | 999.5 hPa | 0 mm | - | - | - |
| 1777579135 | 6.67° C | 45% | 999.5 hPa | 0 mm | - | - | - |
| 1777577933 | 7.22° C | 43% | 999.5 hPa | 0 mm | - | - | - |
| 1777577634 | 7.22° C | 44% | 999.4 hPa | 0 mm | - | - | - |
| 1777577334 | 7.22° C | 43% | 999.4 hPa | 0 mm | - | - | - |
| 1777577034 | 7.78° C | 43% | 999.4 hPa | 0 mm | - | - | - |
| 1777575832 | 7.78° C | 43% | 999.2 hPa | 0 mm | - | - | - |
| 1777574331 | 8.33° C | 42% | 998.8 hPa | 0 mm | - | - | - |
| 1777573731 | 8.33° C | 42% | 998.7 hPa | 0 mm | - | - | - |
| 1777573432 | 8.33° C | 41% | 998.6 hPa | 0 mm | - | - | - |
| 1777573130 | 8.33° C | 41% | 998.5 hPa | 0 mm | - | - | - |
| 1777571629 | 8.89° C | 40% | 998.5 hPa | 0 mm | - | - | - |
| 1777568926 | 10.56° C | 37% | 998 hPa | 0 mm | - | - | - |
| 1777568626 | 10.56° C | 36% | 997.8 hPa | 0 mm | - | - | - |
* Rain latest hour (hover to see other rain measurements)
** Current wind speed in m/s (hover to see current wind gust speed)